createdAt,value
2024-03-16T00:01:31.379Z,21.31
2024-03-16T00:04:05.119Z,21.32
2024-03-16T00:06:36.451Z,21.32
2024-03-16T00:09:03.816Z,21.31
2024-03-16T00:11:31.360Z,21.31
2024-03-16T00:13:57.894Z,21.31
2024-03-16T00:16:32.130Z,21.32
2024-03-16T00:19:01.929Z,21.32
2024-03-16T00:21:29.446Z,21.31
2024-03-16T00:23:59.414Z,21.31
2024-03-16T00:26:29.142Z,21.31
2024-03-16T00:28:55.826Z,21.31
2024-03-16T00:31:22.856Z,21.32
2024-03-16T00:33:50.703Z,21.31
2024-03-16T00:36:19.535Z,21.32
2024-03-16T00:38:46.464Z,21.32
2024-03-16T00:41:20.148Z,21.31
2024-03-16T00:43:52.376Z,21.31
2024-03-16T00:46:26.546Z,21.30
2024-03-16T00:48:54.052Z,21.31
2024-03-16T00:51:20.949Z,21.30
2024-03-16T00:53:53.720Z,21.31
2024-03-16T00:56:23.203Z,21.31
2024-03-16T00:58:57.672Z,21.30
2024-03-16T01:01:28.199Z,21.31
2024-03-16T01:04:00.879Z,21.30
2024-03-16T01:06:31.065Z,21.31
2024-03-16T01:08:58.060Z,21.30
2024-03-16T01:11:30.812Z,21.30
2024-03-16T01:14:02.281Z,21.29
2024-03-16T01:16:36.119Z,21.28
2024-03-16T01:19:06.904Z,21.29
2024-03-16T01:21:36.950Z,21.28
2024-03-16T01:24:09.155Z,21.27
2024-03-16T01:26:42.800Z,21.28
2024-03-16T01:29:13.501Z,21.27
2024-03-16T01:31:46.235Z,21.27
2024-03-16T01:34:17.582Z,21.27
2024-03-16T01:36:48.213Z,21.26
2024-03-16T01:39:16.558Z,21.25
2024-03-16T01:41:49.104Z,21.25
2024-03-16T01:44:21.914Z,21.25
2024-03-16T01:46:48.658Z,21.25
2024-03-16T01:49:18.851Z,21.25
2024-03-16T01:51:45.756Z,21.26
2024-03-16T01:54:13.696Z,21.25
2024-03-16T01:56:46.827Z,21.25
2024-03-16T01:59:20.061Z,21.24
2024-03-16T02:01:46.812Z,21.24
2024-03-16T02:04:16.759Z,21.24
2024-03-16T02:06:46.152Z,21.24
2024-03-16T02:09:19.380Z,21.24
2024-03-16T02:11:50.004Z,21.25
2024-03-16T02:14:17.113Z,21.25
2024-03-16T02:16:45.374Z,21.25
2024-03-16T02:19:15.417Z,21.24
2024-03-16T02:21:44.716Z,21.23
2024-03-16T02:24:14.912Z,21.23
2024-03-16T02:26:41.727Z,21.22
2024-03-16T02:29:14.701Z,21.22
2024-03-16T02:31:44.686Z,21.21
2024-03-16T02:34:15.881Z,21.20
2024-03-16T02:36:43.019Z,21.21
2024-03-16T02:39:10.083Z,21.21
2024-03-16T02:41:36.924Z,21.21
2024-03-16T02:44:03.726Z,21.22
2024-03-16T02:46:30.284Z,21.22
2024-03-16T02:49:00.130Z,21.22
2024-03-16T02:51:27.350Z,21.22
2024-03-16T02:53:55.239Z,21.22
2024-03-16T02:56:22.748Z,21.21
2024-03-16T02:58:51.456Z,21.21
2024-03-16T03:01:19.036Z,21.21
2024-03-16T03:03:50.719Z,21.20
2024-03-16T03:06:17.453Z,21.20
2024-03-16T03:08:44.815Z,21.20
2024-03-16T03:11:11.575Z,21.20
2024-03-16T03:13:41.738Z,21.18
2024-03-16T03:16:09.948Z,21.18
2024-03-16T03:18:39.371Z,21.16
2024-03-16T03:21:07.118Z,21.16
2024-03-16T03:23:34.906Z,21.16
2024-03-16T03:26:03.734Z,21.15
2024-03-16T03:28:33.625Z,21.16
2024-03-16T03:31:01.079Z,21.16
2024-03-16T03:33:27.949Z,21.15
2024-03-16T03:35:54.796Z,21.15
2024-03-16T03:38:28.386Z,21.14
2024-03-16T03:40:55.949Z,21.13
2024-03-16T03:43:23.889Z,21.15
2024-03-16T03:45:51.594Z,21.13
2024-03-16T03:48:19.500Z,21.14
2024-03-16T03:50:46.641Z,21.13
2024-03-16T03:53:14.753Z,21.13
2024-03-16T03:55:43.734Z,21.15
2024-03-16T03:58:10.785Z,21.15
2024-03-16T04:00:38.091Z,21.13
2024-03-16T04:03:05.855Z,21.14
2024-03-16T04:05:32.585Z,21.13
2024-03-16T04:08:00.307Z,21.12
2024-03-16T04:10:29.818Z,21.11
2024-03-16T04:12:56.552Z,21.11
2024-03-16T04:15:23.409Z,21.11
2024-03-16T04:17:51.528Z,21.09
2024-03-16T04:20:19.127Z,21.08
2024-03-16T04:22:45.968Z,21.08
2024-03-16T04:25:14.618Z,21.07
2024-03-16T04:27:43.781Z,21.07
2024-03-16T04:30:12.283Z,21.07
2024-03-16T04:32:39.461Z,21.08
2024-03-16T04:35:10.588Z,21.08
2024-03-16T04:37:37.611Z,21.06
2024-03-16T04:40:05.306Z,21.07
2024-03-16T04:42:36.785Z,21.08
2024-03-16T04:45:09.719Z,21.08
2024-03-16T04:47:46.137Z,21.08
2024-03-16T04:50:13.154Z,21.07
2024-03-16T04:52:42.767Z,21.07
2024-03-16T04:55:10.114Z,21.07
2024-03-16T04:57:37.370Z,21.07
2024-03-16T05:00:04.251Z,21.07
2024-03-16T05:02:33.662Z,21.07
2024-03-16T05:05:00.578Z,21.05
2024-03-16T05:07:27.464Z,21.05
2024-03-16T05:09:54.924Z,21.05
2024-03-16T05:12:22.115Z,21.05
2024-03-16T05:14:54.214Z,21.04
2024-03-16T05:17:20.956Z,21.04
2024-03-16T05:19:48.114Z,21.04
2024-03-16T05:22:17.992Z,21.04
2024-03-16T05:24:45.436Z,21.03
2024-03-16T05:27:12.621Z,21.03
2024-03-16T05:29:39.518Z,21.03
2024-03-16T05:32:07.101Z,21.02
2024-03-16T05:34:35.300Z,21.02
2024-03-16T05:37:04.286Z,21.03
2024-03-16T05:39:32.428Z,21.03
2024-03-16T05:41:59.742Z,21.01
2024-03-16T05:44:27.078Z,21.01
2024-03-16T05:46:54.758Z,21.01
2024-03-16T05:49:23.837Z,21.03
2024-03-16T05:51:52.277Z,21.04
2024-03-16T05:54:21.946Z,21.03
2024-03-16T05:56:49.318Z,21.01
2024-03-16T05:59:16.095Z,21.03
2024-03-16T06:01:42.848Z,21.02
2024-03-16T06:04:10.179Z,21.03
2024-03-16T06:06:37.027Z,21.03
2024-03-16T06:09:09.909Z,21.02
2024-03-16T06:11:37.063Z,21.02
2024-03-16T06:14:07.614Z,21.00
2024-03-16T06:16:34.639Z,20.99
2024-03-16T06:19:02.040Z,20.98
2024-03-16T06:21:30.567Z,20.96
2024-03-16T06:24:00.341Z,20.94
2024-03-16T06:26:29.091Z,20.94
2024-03-16T06:29:00.228Z,20.93
2024-03-16T06:37:11.877Z,20.92
2024-03-16T06:39:44.480Z,20.94
2024-03-16T06:42:15.074Z,20.94
2024-03-16T06:44:48.169Z,20.94
2024-03-16T06:47:17.229Z,20.95
2024-03-16T06:50:06.814Z,20.95
2024-03-16T06:52:33.566Z,20.95
2024-03-16T06:55:01.212Z,20.93
2024-03-16T06:57:34.117Z,20.94
2024-03-16T07:00:03.577Z,20.92
2024-03-16T07:02:49.971Z,20.92
2024-03-16T07:05:17.808Z,20.91
2024-03-16T07:07:50.446Z,20.91
2024-03-16T07:10:18.876Z,20.91
2024-03-16T07:13:07.990Z,20.91
2024-03-16T07:15:41.604Z,20.91
2024-03-16T07:21:00.713Z,20.90
2024-03-16T07:23:27.398Z,20.91
2024-03-16T07:25:56.875Z,20.92
2024-03-16T07:28:24.447Z,20.93
2024-03-16T07:30:56.146Z,20.91
2024-03-16T07:33:22.954Z,20.93
2024-03-16T07:35:53.241Z,20.95
2024-03-16T07:38:23.109Z,20.93
2024-03-16T07:40:51.801Z,20.95
2024-03-16T07:43:20.767Z,20.95
2024-03-16T07:45:52.053Z,20.94
2024-03-16T07:48:22.293Z,20.94
2024-03-16T07:51:09.827Z,20.94
2024-03-16T07:53:36.861Z,20.96
2024-03-16T07:56:03.544Z,20.95
2024-03-16T07:58:51.665Z,20.94
2024-03-16T08:01:20.946Z,20.93
2024-03-16T08:03:47.857Z,20.91
2024-03-16T08:06:40.173Z,20.92
2024-03-16T08:12:27.280Z,20.94
2024-03-16T08:15:00.275Z,20.95
2024-03-16T08:23:15.651Z,20.88
2024-03-16T08:28:29.917Z,20.83
2024-03-16T08:37:00.158Z,20.89
2024-03-16T08:39:49.240Z,20.90
2024-03-16T08:45:44.592Z,20.91
2024-03-16T08:51:02.070Z,20.92
2024-03-16T08:53:29.031Z,20.93
2024-03-16T08:56:00.141Z,20.93
2024-03-16T08:58:29.855Z,20.94
2024-03-16T09:01:01.332Z,20.94
2024-03-16T09:04:08.238Z,20.94
2024-03-16T09:06:42.568Z,20.92
2024-03-16T09:09:18.934Z,20.91
2024-03-16T09:11:45.488Z,20.90
2024-03-16T09:14:12.218Z,20.88
2024-03-16T09:16:42.578Z,20.88
2024-03-16T09:19:09.823Z,20.87
2024-03-16T09:21:37.271Z,20.88
2024-03-16T09:24:05.100Z,20.90
2024-03-16T09:26:32.534Z,20.90
2024-03-16T09:29:00.173Z,20.91
2024-03-16T09:31:28.714Z,20.91
2024-03-16T09:33:58.839Z,20.93
2024-03-16T09:36:28.865Z,20.92
2024-03-16T09:39:03.697Z,20.92
2024-03-16T09:41:31.613Z,20.92
